sensor_id;sensor_type;location;lat;lon;timestamp;P1;durP1;ratioP1;P2;durP2;ratioP2
16472;SDS011;8347;52.486;13.432;2023-06-22T00:00:23;12.02;;;10.75;;
16472;SDS011;8347;52.486;13.432;2023-06-22T00:03:10;12.07;;;10.75;;
16472;SDS011;8347;52.486;13.432;2023-06-22T00:05:57;11.80;;;10.70;;
16472;SDS011;8347;52.486;13.432;2023-06-22T00:08:43;10.90;;;9.80;;
16472;SDS011;8347;52.486;13.432;2023-06-22T00:11:30;10.55;;;9.45;;
16472;SDS011;8347;52.486;13.432;2023-06-22T00:14:19;11.90;;;10.70;;
16472;SDS011;8347;52.486;13.432;2023-06-22T00:17:05;12.90;;;10.82;;
16472;SDS011;8347;52.486;13.432;2023-06-22T00:19:51;12.38;;;11.07;;
16472;SDS011;8347;52.486;13.432;2023-06-22T00:22:39;11.20;;;10.05;;
16472;SDS011;8347;52.486;13.432;2023-06-22T00:25:26;13.50;;;11.10;;
16472;SDS011;8347;52.486;13.432;2023-06-22T00:28:12;11.38;;;9.85;;
16472;SDS011;8347;52.486;13.432;2023-06-22T00:30:58;12.13;;;10.48;;
16472;SDS011;8347;52.486;13.432;2023-06-22T00:33:46;10.75;;;9.60;;
16472;SDS011;8347;52.486;13.432;2023-06-22T00:36:33;11.15;;;10.00;;
16472;SDS011;8347;52.486;13.432;2023-06-22T00:39:20;13.48;;;10.63;;
16472;SDS011;8347;52.486;13.432;2023-06-22T00:42:06;11.90;;;10.63;;
16472;SDS011;8347;52.486;13.432;2023-06-22T00:44:52;11.68;;;10.48;;
16472;SDS011;8347;52.486;13.432;2023-06-22T00:47:39;11.40;;;10.20;;
16472;SDS011;8347;52.486;13.432;2023-06-22T00:50:26;14.57;;;10.88;;
16472;SDS011;8347;52.486;13.432;2023-06-22T00:53:19;12.07;;;10.48;;
16472;SDS011;8347;52.486;13.432;2023-06-22T00:56:05;15.05;;;10.15;;
16472;SDS011;8347;52.486;13.432;2023-06-22T00:58:55;10.13;;;9.07;;
16472;SDS011;8347;52.486;13.432;2023-06-22T01:01:44;11.20;;;9.50;;
16472;SDS011;8347;52.486;13.432;2023-06-22T01:04:34;11.00;;;9.90;;
16472;SDS011;8347;52.486;13.432;2023-06-22T01:07:39;14.05;;;10.57;;
16472;SDS011;8347;52.486;13.432;2023-06-22T01:10:39;10.63;;;9.13;;
16472;SDS011;8347;52.486;13.432;2023-06-22T01:13:31;12.13;;;9.85;;
16472;SDS011;8347;52.486;13.432;2023-06-22T01:16:26;14.43;;;10.85;;
16472;SDS011;8347;52.486;13.432;2023-06-22T01:22:19;15.35;;;11.32;;
16472;SDS011;8347;52.486;13.432;2023-06-22T01:25:09;13.30;;;11.85;;
16472;SDS011;8347;52.486;13.432;2023-06-22T01:28:20;12.48;;;11.15;;
16472;SDS011;8347;52.486;13.432;2023-06-22T01:31:10;15.80;;;11.70;;
16472;SDS011;8347;52.486;13.432;2023-06-22T01:34:00;13.80;;;12.10;;
16472;SDS011;8347;52.486;13.432;2023-06-22T01:36:47;15.73;;;12.55;;
16472;SDS011;8347;52.486;13.432;2023-06-22T01:39:33;14.48;;;12.13;;
16472;SDS011;8347;52.486;13.432;2023-06-22T01:42:21;14.57;;;12.07;;
16472;SDS011;8347;52.486;13.432;2023-06-22T01:45:10;18.40;;;13.13;;
16472;SDS011;8347;52.486;13.432;2023-06-22T01:47:57;13.60;;;12.20;;
16472;SDS011;8347;52.486;13.432;2023-06-22T01:50:44;15.80;;;12.85;;
16472;SDS011;8347;52.486;13.432;2023-06-22T01:53:31;16.20;;;13.07;;
16472;SDS011;8347;52.486;13.432;2023-06-22T01:56:17;17.02;;;14.45;;
16472;SDS011;8347;52.486;13.432;2023-06-22T02:01:54;16.10;;;14.18;;
16472;SDS011;8347;52.486;13.432;2023-06-22T02:04:46;13.82;;;12.43;;
16472;SDS011;8347;52.486;13.432;2023-06-22T02:07:34;18.27;;;14.93;;
16472;SDS011;8347;52.486;13.432;2023-06-22T02:10:30;14.80;;;12.85;;
16472;SDS011;8347;52.486;13.432;2023-06-22T02:13:18;17.25;;;13.20;;
16472;SDS011;8347;52.486;13.432;2023-06-22T02:16:05;15.52;;;13.57;;
16472;SDS011;8347;52.486;13.432;2023-06-22T02:18:52;15.00;;;12.57;;
16472;SDS011;8347;52.486;13.432;2023-06-22T02:21:38;15.45;;;13.00;;
16472;SDS011;8347;52.486;13.432;2023-06-22T02:24:25;18.77;;;14.30;;
16472;SDS011;8347;52.486;13.432;2023-06-22T02:27:11;15.63;;;14.00;;
16472;SDS011;8347;52.486;13.432;2023-06-22T02:29:58;18.10;;;14.23;;
16472;SDS011;8347;52.486;13.432;2023-06-22T02:32:45;14.80;;;13.07;;
16472;SDS011;8347;52.486;13.432;2023-06-22T02:35:35;16.13;;;13.27;;
16472;SDS011;8347;52.486;13.432;2023-06-22T02:38:21;17.30;;;14.25;;
16472;SDS011;8347;52.486;13.432;2023-06-22T02:41:11;16.52;;;12.93;;
16472;SDS011;8347;52.486;13.432;2023-06-22T02:43:59;18.52;;;14.60;;
16472;SDS011;8347;52.486;13.432;2023-06-22T02:46:46;16.75;;;14.25;;
16472;SDS011;8347;52.486;13.432;2023-06-22T02:49:34;16.15;;;13.25;;
16472;SDS011;8347;52.486;13.432;2023-06-22T02:52:21;16.23;;;12.60;;
16472;SDS011;8347;52.486;13.432;2023-06-22T02:55:08;15.52;;;13.65;;
16472;SDS011;8347;52.486;13.432;2023-06-22T02:57:55;16.77;;;13.98;;
16472;SDS011;8347;52.486;13.432;2023-06-22T03:00:43;16.38;;;14.77;;
16472;SDS011;8347;52.486;13.432;2023-06-22T03:03:30;21.52;;;14.60;;
16472;SDS011;8347;52.486;13.432;2023-06-22T03:06:16;14.80;;;13.20;;
16472;SDS011;8347;52.486;13.432;2023-06-22T03:09:08;17.25;;;13.20;;
16472;SDS011;8347;52.486;13.432;2023-06-22T03:11:56;15.93;;;14.13;;
16472;SDS011;8347;52.486;13.432;2023-06-22T03:14:46;15.50;;;12.65;;
16472;SDS011;8347;52.486;13.432;2023-06-22T03:17:34;15.98;;;14.38;;
16472;SDS011;8347;52.486;13.432;2023-06-22T03:20:21;16.02;;;13.75;;
16472;SDS011;8347;52.486;13.432;2023-06-22T03:23:09;17.75;;;13.45;;
16472;SDS011;8347;52.486;13.432;2023-06-22T03:25:55;16.30;;;12.23;;
16472;SDS011;8347;52.486;13.432;2023-06-22T03:28:42;16.10;;;12.13;;
16472;SDS011;8347;52.486;13.432;2023-06-22T03:31:29;12.25;;;10.95;;
16472;SDS011;8347;52.486;13.432;2023-06-22T03:34:16;13.55;;;12.10;;
16472;SDS011;8347;52.486;13.432;2023-06-22T03:37:03;13.60;;;12.05;;
16472;SDS011;8347;52.486;13.432;2023-06-22T03:39:49;12.77;;;10.88;;
16472;SDS011;8347;52.486;13.432;2023-06-22T03:42:36;13.27;;;11.95;;
16472;SDS011;8347;52.486;13.432;2023-06-22T03:45:23;12.63;;;9.98;;
16472;SDS011;8347;52.486;13.432;2023-06-22T03:48:09;11.75;;;10.55;;
16472;SDS011;8347;52.486;13.432;2023-06-22T03:50:56;11.98;;;10.18;;
16472;SDS011;8347;52.486;13.432;2023-06-22T03:53:43;11.30;;;10.07;;
16472;SDS011;8347;52.486;13.432;2023-06-22T03:56:30;11.57;;;9.57;;
16472;SDS011;8347;52.486;13.432;2023-06-22T03:59:17;11.85;;;8.77;;
16472;SDS011;8347;52.486;13.432;2023-06-22T04:02:03;10.52;;;8.75;;
16472;SDS011;8347;52.486;13.432;2023-06-22T04:04:50;12.35;;;8.45;;
16472;SDS011;8347;52.486;13.432;2023-06-22T04:07:36;14.13;;;9.57;;
16472;SDS011;8347;52.486;13.432;2023-06-22T04:10:22;9.75;;;8.18;;
16472;SDS011;8347;52.486;13.432;2023-06-22T04:13:09;7.63;;;6.88;;
16472;SDS011;8347;52.486;13.432;2023-06-22T04:15:56;13.63;;;8.10;;
16472;SDS011;8347;52.486;13.432;2023-06-22T04:18:42;9.30;;;7.50;;
16472;SDS011;8347;52.486;13.432;2023-06-22T04:21:29;9.18;;;8.15;;
16472;SDS011;8347;52.486;13.432;2023-06-22T04:24:15;10.13;;;8.50;;
16472;SDS011;8347;52.486;13.432;2023-06-22T04:27:02;10.75;;;8.32;;
16472;SDS011;8347;52.486;13.432;2023-06-22T04:29:48;10.27;;;8.52;;
16472;SDS011;8347;52.486;13.432;2023-06-22T04:32:35;9.93;;;8.60;;
16472;SDS011;8347;52.486;13.432;2023-06-22T04:35:25;10.90;;;9.32;;
16472;SDS011;8347;52.486;13.432;2023-06-22T04:38:12;10.73;;;8.88;;
16472;SDS011;8347;52.486;13.432;2023-06-22T04:40:59;9.25;;;7.65;;
16472;SDS011;8347;52.486;13.432;2023-06-22T04:43:48;12.60;;;8.18;;
16472;SDS011;8347;52.486;13.432;2023-06-22T04:46:39;8.30;;;7.28;;
16472;SDS011;8347;52.486;13.432;2023-06-22T04:49:26;10.57;;;7.47;;
16472;SDS011;8347;52.486;13.432;2023-06-22T04:52:21;9.95;;;7.38;;
16472;SDS011;8347;52.486;13.432;2023-06-22T04:55:07;10.80;;;8.23;;
16472;SDS011;8347;52.486;13.432;2023-06-22T04:57:54;9.48;;;7.28;;
16472;SDS011;8347;52.486;13.432;2023-06-22T05:00:41;9.77;;;6.78;;
16472;SDS011;8347;52.486;13.432;2023-06-22T05:03:30;7.90;;;6.30;;
16472;SDS011;8347;52.486;13.432;2023-06-22T05:06:16;9.82;;;6.50;;
16472;SDS011;8347;52.486;13.432;2023-06-22T05:09:03;8.10;;;7.30;;
16472;SDS011;8347;52.486;13.432;2023-06-22T05:11:51;11.55;;;7.10;;
16472;SDS011;8347;52.486;13.432;2023-06-22T05:14:37;10.68;;;7.75;;
16472;SDS011;8347;52.486;13.432;2023-06-22T05:17:24;10.40;;;7.53;;
16472;SDS011;8347;52.486;13.432;2023-06-22T05:20:11;10.82;;;7.07;;
16472;SDS011;8347;52.486;13.432;2023-06-22T05:22:58;9.45;;;6.78;;
16472;SDS011;8347;52.486;13.432;2023-06-22T05:25:44;7.93;;;6.95;;
16472;SDS011;8347;52.486;13.432;2023-06-22T05:28:31;10.52;;;7.03;;
16472;SDS011;8347;52.486;13.432;2023-06-22T05:31:19;9.02;;;7.57;;
16472;SDS011;8347;52.486;13.432;2023-06-22T05:34:05;8.13;;;7.28;;
16472;SDS011;8347;52.486;13.432;2023-06-22T05:36:52;10.05;;;7.18;;
16472;SDS011;8347;52.486;13.432;2023-06-22T05:39:38;9.80;;;6.88;;
16472;SDS011;8347;52.486;13.432;2023-06-22T05:42:25;9.88;;;6.72;;
16472;SDS011;8347;52.486;13.432;2023-06-22T05:45:11;9.10;;;6.93;;
16472;SDS011;8347;52.486;13.432;2023-06-22T05:47:58;10.43;;;6.57;;
16472;SDS011;8347;52.486;13.432;2023-06-22T05:50:45;7.20;;;6.50;;
16472;SDS011;8347;52.486;13.432;2023-06-22T05:53:31;10.63;;;5.72;;
16472;SDS011;8347;52.486;13.432;2023-06-22T05:56:18;6.85;;;6.15;;
16472;SDS011;8347;52.486;13.432;2023-06-22T05:59:05;7.47;;;6.00;;
16472;SDS011;8347;52.486;13.432;2023-06-22T06:01:51;5.90;;;5.30;;
16472;SDS011;8347;52.486;13.432;2023-06-22T06:04:38;7.38;;;6.30;;
16472;SDS011;8347;52.486;13.432;2023-06-22T06:07:24;7.32;;;6.15;;
16472;SDS011;8347;52.486;13.432;2023-06-22T06:10:12;8.27;;;5.57;;
16472;SDS011;8347;52.486;13.432;2023-06-22T06:12:59;7.85;;;5.90;;
16472;SDS011;8347;52.486;13.432;2023-06-22T06:15:48;6.85;;;5.03;;
16472;SDS011;8347;52.486;13.432;2023-06-22T06:18:37;8.15;;;5.18;;
16472;SDS011;8347;52.486;13.432;2023-06-22T06:21:23;6.68;;;5.38;;
16472;SDS011;8347;52.486;13.432;2023-06-22T06:24:10;6.68;;;5.28;;
16472;SDS011;8347;52.486;13.432;2023-06-22T06:26:57;6.15;;;5.22;;
16472;SDS011;8347;52.486;13.432;2023-06-22T06:29:44;5.68;;;4.90;;
16472;SDS011;8347;52.486;13.432;2023-06-22T06:32:33;7.28;;;4.90;;
16472;SDS011;8347;52.486;13.432;2023-06-22T06:35:20;7.28;;;4.57;;
16472;SDS011;8347;52.486;13.432;2023-06-22T06:38:07;6.85;;;4.25;;
16472;SDS011;8347;52.486;13.432;2023-06-22T06:40:54;7.07;;;4.88;;
16472;SDS011;8347;52.486;13.432;2023-06-22T06:43:40;7.13;;;4.97;;
16472;SDS011;8347;52.486;13.432;2023-06-22T06:46:28;5.00;;;4.50;;
16472;SDS011;8347;52.486;13.432;2023-06-22T06:49:15;8.30;;;4.10;;
16472;SDS011;8347;52.486;13.432;2023-06-22T06:52:02;5.88;;;3.90;;
16472;SDS011;8347;52.486;13.432;2023-06-22T06:54:48;7.40;;;4.25;;
16472;SDS011;8347;52.486;13.432;2023-06-22T06:57:37;4.28;;;3.88;;
16472;SDS011;8347;52.486;13.432;2023-06-22T07:00:24;6.32;;;3.88;;
16472;SDS011;8347;52.486;13.432;2023-06-22T07:03:11;5.30;;;3.92;;
16472;SDS011;8347;52.486;13.432;2023-06-22T07:05:58;6.30;;;3.40;;
16472;SDS011;8347;52.486;13.432;2023-06-22T07:08:44;4.53;;;3.30;;
16472;SDS011;8347;52.486;13.432;2023-06-22T07:11:31;4.63;;;3.20;;
16472;SDS011;8347;52.486;13.432;2023-06-22T07:14:17;4.97;;;3.42;;
16472;SDS011;8347;52.486;13.432;2023-06-22T07:17:04;4.43;;;3.58;;
16472;SDS011;8347;52.486;13.432;2023-06-22T07:19:51;6.35;;;3.50;;
16472;SDS011;8347;52.486;13.432;2023-06-22T07:22:38;7.72;;;3.55;;
16472;SDS011;8347;52.486;13.432;2023-06-22T07:25:24;5.47;;;3.53;;
16472;SDS011;8347;52.486;13.432;2023-06-22T07:28:11;4.32;;;3.70;;
16472;SDS011;8347;52.486;13.432;2023-06-22T07:30:57;6.40;;;3.92;;
16472;SDS011;8347;52.486;13.432;2023-06-22T07:33:44;5.57;;;3.55;;
16472;SDS011;8347;52.486;13.432;2023-06-22T07:36:30;4.90;;;3.72;;
16472;SDS011;8347;52.486;13.432;2023-06-22T07:39:17;5.15;;;3.08;;
16472;SDS011;8347;52.486;13.432;2023-06-22T07:42:04;5.20;;;2.88;;
16472;SDS011;8347;52.486;13.432;2023-06-22T07:44:51;5.72;;;2.80;;
16472;SDS011;8347;52.486;13.432;2023-06-22T07:47:37;5.35;;;3.05;;
16472;SDS011;8347;52.486;13.432;2023-06-22T07:50:24;4.25;;;2.65;;
16472;SDS011;8347;52.486;13.432;2023-06-22T07:53:10;7.40;;;3.38;;
16472;SDS011;8347;52.486;13.432;2023-06-22T07:55:57;5.28;;;3.05;;
16472;SDS011;8347;52.486;13.432;2023-06-22T07:58:43;5.35;;;3.53;;
16472;SDS011;8347;52.486;13.432;2023-06-22T08:01:29;4.00;;;2.53;;
16472;SDS011;8347;52.486;13.432;2023-06-22T08:04:16;6.00;;;3.22;;
16472;SDS011;8347;52.486;13.432;2023-06-22T08:07:02;3.60;;;2.72;;
16472;SDS011;8347;52.486;13.432;2023-06-22T08:09:49;3.03;;;2.72;;
16472;SDS011;8347;52.486;13.432;2023-06-22T08:12:36;3.05;;;2.28;;
16472;SDS011;8347;52.486;13.432;2023-06-22T08:15:22;3.58;;;2.45;;
16472;SDS011;8347;52.486;13.432;2023-06-22T08:18:09;4.50;;;3.00;;
16472;SDS011;8347;52.486;13.432;2023-06-22T08:20:55;3.72;;;2.80;;
16472;SDS011;8347;52.486;13.432;2023-06-22T08:23:41;3.75;;;3.10;;
16472;SDS011;8347;52.486;13.432;2023-06-22T08:26:28;5.95;;;2.88;;
16472;SDS011;8347;52.486;13.432;2023-06-22T08:29:14;5.25;;;3.10;;
16472;SDS011;8347;52.486;13.432;2023-06-22T08:32:01;3.58;;;3.00;;
16472;SDS011;8347;52.486;13.432;2023-06-22T08:34:47;3.78;;;3.08;;
16472;SDS011;8347;52.486;13.432;2023-06-22T08:37:33;6.13;;;3.35;;
16472;SDS011;8347;52.486;13.432;2023-06-22T08:40:21;9.55;;;3.80;;
16472;SDS011;8347;52.486;13.432;2023-06-22T08:43:08;5.65;;;2.85;;
16472;SDS011;8347;52.486;13.432;2023-06-22T08:45:54;4.18;;;3.10;;
16472;SDS011;8347;52.486;13.432;2023-06-22T08:48:41;3.90;;;3.30;;
16472;SDS011;8347;52.486;13.432;2023-06-22T08:51:28;3.70;;;3.00;;
16472;SDS011;8347;52.486;13.432;2023-06-22T08:54:15;4.40;;;2.63;;
16472;SDS011;8347;52.486;13.432;2023-06-22T08:57:01;3.55;;;3.10;;
16472;SDS011;8347;52.486;13.432;2023-06-22T08:59:48;4.68;;;2.88;;
16472;SDS011;8347;52.486;13.432;2023-06-22T09:02:35;5.32;;;3.33;;
16472;SDS011;8347;52.486;13.432;2023-06-22T09:05:22;5.13;;;2.72;;
16472;SDS011;8347;52.486;13.432;2023-06-22T09:08:08;3.33;;;3.00;;
16472;SDS011;8347;52.486;13.432;2023-06-22T09:10:56;4.53;;;2.83;;
16472;SDS011;8347;52.486;13.432;2023-06-22T09:13:43;3.53;;;2.72;;
16472;SDS011;8347;52.486;13.432;2023-06-22T09:16:29;3.58;;;3.08;;
16472;SDS011;8347;52.486;13.432;2023-06-22T09:19:16;7.93;;;3.00;;
16472;SDS011;8347;52.486;13.432;2023-06-22T09:22:02;3.28;;;2.65;;
16472;SDS011;8347;52.486;13.432;2023-06-22T09:24:49;2.78;;;2.35;;
16472;SDS011;8347;52.486;13.432;2023-06-22T09:27:36;3.42;;;2.92;;
16472;SDS011;8347;52.486;13.432;2023-06-22T09:30:22;4.35;;;2.85;;
16472;SDS011;8347;52.486;13.432;2023-06-22T09:33:09;3.85;;;2.97;;
16472;SDS011;8347;52.486;13.432;2023-06-22T09:35:55;3.70;;;3.40;;
16472;SDS011;8347;52.486;13.432;2023-06-22T09:38:42;5.57;;;3.38;;
16472;SDS011;8347;52.486;13.432;2023-06-22T09:41:28;3.22;;;2.78;;
16472;SDS011;8347;52.486;13.432;2023-06-22T09:44:15;3.28;;;2.90;;
16472;SDS011;8347;52.486;13.432;2023-06-22T09:47:01;3.78;;;2.92;;
16472;SDS011;8347;52.486;13.432;2023-06-22T09:49:48;5.28;;;3.10;;
16472;SDS011;8347;52.486;13.432;2023-06-22T09:52:34;5.03;;;2.85;;
16472;SDS011;8347;52.486;13.432;2023-06-22T09:55:21;3.03;;;2.83;;
16472;SDS011;8347;52.486;13.432;2023-06-22T09:58:08;3.88;;;3.40;;
16472;SDS011;8347;52.486;13.432;2023-06-22T10:00:55;3.33;;;2.97;;
16472;SDS011;8347;52.486;13.432;2023-06-22T10:03:42;3.88;;;3.45;;
16472;SDS011;8347;52.486;13.432;2023-06-22T10:06:28;5.05;;;3.65;;
16472;SDS011;8347;52.486;13.432;2023-06-22T10:09:14;3.97;;;3.20;;
16472;SDS011;8347;52.486;13.432;2023-06-22T10:12:01;7.75;;;3.47;;
16472;SDS011;8347;52.486;13.432;2023-06-22T10:14:48;3.83;;;3.42;;
16472;SDS011;8347;52.486;13.432;2023-06-22T10:17:34;4.35;;;3.72;;
16472;SDS011;8347;52.486;13.432;2023-06-22T10:20:21;4.13;;;3.22;;
16472;SDS011;8347;52.486;13.432;2023-06-22T10:23:08;3.38;;;2.95;;
16472;SDS011;8347;52.486;13.432;2023-06-22T10:25:54;3.65;;;3.10;;
16472;SDS011;8347;52.486;13.432;2023-06-22T10:28:43;3.58;;;3.10;;
16472;SDS011;8347;52.486;13.432;2023-06-22T10:31:30;3.35;;;3.05;;
16472;SDS011;8347;52.486;13.432;2023-06-22T10:34:17;4.50;;;3.58;;
16472;SDS011;8347;52.486;13.432;2023-06-22T10:37:03;3.50;;;3.10;;
16472;SDS011;8347;52.486;13.432;2023-06-22T10:39:49;7.63;;;3.03;;
16472;SDS011;8347;52.486;13.432;2023-06-22T10:42:36;3.97;;;3.38;;
16472;SDS011;8347;52.486;13.432;2023-06-22T10:45:22;6.07;;;3.72;;
16472;SDS011;8347;52.486;13.432;2023-06-22T10:48:09;3.42;;;3.13;;
16472;SDS011;8347;52.486;13.432;2023-06-22T10:50:55;4.95;;;2.85;;
16472;SDS011;8347;52.486;13.432;2023-06-22T10:53:42;5.78;;;3.20;;
16472;SDS011;8347;52.486;13.432;2023-06-22T10:56:29;5.25;;;3.20;;
16472;SDS011;8347;52.486;13.432;2023-06-22T10:59:15;5.22;;;3.38;;
16472;SDS011;8347;52.486;13.432;2023-06-22T11:02:02;3.47;;;3.15;;
16472;SDS011;8347;52.486;13.432;2023-06-22T11:04:48;3.92;;;2.90;;
16472;SDS011;8347;52.486;13.432;2023-06-22T11:07:36;4.97;;;3.40;;
16472;SDS011;8347;52.486;13.432;2023-06-22T11:10:23;5.32;;;3.30;;
16472;SDS011;8347;52.486;13.432;2023-06-22T11:13:09;4.25;;;2.95;;
16472;SDS011;8347;52.486;13.432;2023-06-22T11:15:56;4.38;;;2.67;;
16472;SDS011;8347;52.486;13.432;2023-06-22T11:18:43;2.92;;;2.72;;
16472;SDS011;8347;52.486;13.432;2023-06-22T11:21:29;5.25;;;2.95;;
16472;SDS011;8347;52.486;13.432;2023-06-22T11:24:17;3.42;;;2.92;;
16472;SDS011;8347;52.486;13.432;2023-06-22T11:27:04;3.28;;;2.97;;
16472;SDS011;8347;52.486;13.432;2023-06-22T11:29:50;4.13;;;3.25;;
16472;SDS011;8347;52.486;13.432;2023-06-22T11:32:38;3.58;;;2.50;;
16472;SDS011;8347;52.486;13.432;2023-06-22T11:35:25;4.47;;;3.85;;
16472;SDS011;8347;52.486;13.432;2023-06-22T11:38:11;6.05;;;3.97;;
16472;SDS011;8347;52.486;13.432;2023-06-22T11:40:58;3.78;;;3.28;;
16472;SDS011;8347;52.486;13.432;2023-06-22T11:43:45;4.03;;;3.30;;
16472;SDS011;8347;52.486;13.432;2023-06-22T11:46:31;3.42;;;3.13;;
16472;SDS011;8347;52.486;13.432;2023-06-22T11:49:18;4.50;;;3.17;;
16472;SDS011;8347;52.486;13.432;2023-06-22T11:52:05;5.75;;;3.50;;
16472;SDS011;8347;52.486;13.432;2023-06-22T11:54:51;4.43;;;3.20;;
16472;SDS011;8347;52.486;13.432;2023-06-22T11:57:38;3.33;;;3.00;;
16472;SDS011;8347;52.486;13.432;2023-06-22T12:00:25;3.45;;;2.90;;
16472;SDS011;8347;52.486;13.432;2023-06-22T12:03:11;4.50;;;3.30;;
16472;SDS011;8347;52.486;13.432;2023-06-22T12:05:59;3.85;;;3.10;;
16472;SDS011;8347;52.486;13.432;2023-06-22T12:08:45;5.90;;;3.30;;
16472;SDS011;8347;52.486;13.432;2023-06-22T12:11:32;3.20;;;2.90;;
16472;SDS011;8347;52.486;13.432;2023-06-22T12:14:19;3.17;;;2.88;;
16472;SDS011;8347;52.486;13.432;2023-06-22T12:17:05;3.75;;;3.42;;
16472;SDS011;8347;52.486;13.432;2023-06-22T12:19:52;3.42;;;3.13;;
16472;SDS011;8347;52.486;13.432;2023-06-22T12:22:38;4.75;;;3.00;;
16472;SDS011;8347;52.486;13.432;2023-06-22T12:25:25;7.10;;;3.42;;
16472;SDS011;8347;52.486;13.432;2023-06-22T12:28:11;6.65;;;4.10;;
16472;SDS011;8347;52.486;13.432;2023-06-22T12:30:58;3.75;;;3.25;;
16472;SDS011;8347;52.486;13.432;2023-06-22T12:33:44;4.78;;;3.97;;
16472;SDS011;8347;52.486;13.432;2023-06-22T12:36:31;4.43;;;3.50;;
16472;SDS011;8347;52.486;13.432;2023-06-22T12:39:18;4.05;;;3.63;;
16472;SDS011;8347;52.486;13.432;2023-06-22T12:42:05;6.15;;;3.83;;
16472;SDS011;8347;52.486;13.432;2023-06-22T12:47:41;5.63;;;4.30;;
16472;SDS011;8347;52.486;13.432;2023-06-22T12:50:28;4.43;;;4.03;;
16472;SDS011;8347;52.486;13.432;2023-06-22T12:53:15;4.43;;;4.03;;
16472;SDS011;8347;52.486;13.432;2023-06-22T12:56:01;6.22;;;3.97;;
16472;SDS011;8347;52.486;13.432;2023-06-22T12:58:48;5.97;;;4.18;;
16472;SDS011;8347;52.486;13.432;2023-06-22T13:01:35;5.82;;;4.32;;
16472;SDS011;8347;52.486;13.432;2023-06-22T13:04:21;5.97;;;4.03;;
16472;SDS011;8347;52.486;13.432;2023-06-22T13:07:08;5.72;;;4.20;;
16472;SDS011;8347;52.486;13.432;2023-06-22T13:09:54;4.20;;;3.78;;
16472;SDS011;8347;52.486;13.432;2023-06-22T13:12:41;4.35;;;3.95;;
16472;SDS011;8347;52.486;13.432;2023-06-22T13:15:28;4.57;;;4.18;;
16472;SDS011;8347;52.486;13.432;2023-06-22T13:18:15;4.95;;;3.65;;
16472;SDS011;8347;52.486;13.432;2023-06-22T13:21:02;7.13;;;4.15;;
16472;SDS011;8347;52.486;13.432;2023-06-22T13:23:48;6.15;;;4.60;;
16472;SDS011;8347;52.486;13.432;2023-06-22T13:26:35;4.35;;;3.95;;
16472;SDS011;8347;52.486;13.432;2023-06-22T13:29:22;5.38;;;4.05;;
16472;SDS011;8347;52.486;13.432;2023-06-22T13:32:08;4.47;;;3.90;;
16472;SDS011;8347;52.486;13.432;2023-06-22T13:34:55;5.05;;;4.35;;
16472;SDS011;8347;52.486;13.432;2023-06-22T13:37:41;5.30;;;4.82;;
16472;SDS011;8347;52.486;13.432;2023-06-22T13:40:28;5.18;;;3.72;;
16472;SDS011;8347;52.486;13.432;2023-06-22T13:43:15;4.22;;;3.90;;
16472;SDS011;8347;52.486;13.432;2023-06-22T13:46:02;4.60;;;4.20;;
16472;SDS011;8347;52.486;13.432;2023-06-22T13:48:48;5.35;;;3.78;;
16472;SDS011;8347;52.486;13.432;2023-06-22T13:51:35;7.22;;;4.60;;
16472;SDS011;8347;52.486;13.432;2023-06-22T13:54:22;4.47;;;4.07;;
16472;SDS011;8347;52.486;13.432;2023-06-22T13:57:09;3.85;;;3.55;;
16472;SDS011;8347;52.486;13.432;2023-06-22T13:59:55;5.20;;;4.05;;
16472;SDS011;8347;52.486;13.432;2023-06-22T14:02:42;5.25;;;4.68;;
16472;SDS011;8347;52.486;13.432;2023-06-22T14:05:29;4.72;;;4.32;;
16472;SDS011;8347;52.486;13.432;2023-06-22T14:08:15;4.88;;;4.38;;
16472;SDS011;8347;52.486;13.432;2023-06-22T14:11:02;5.13;;;3.90;;
16472;SDS011;8347;52.486;13.432;2023-06-22T14:13:48;4.60;;;3.47;;
16472;SDS011;8347;52.486;13.432;2023-06-22T14:16:35;8.50;;;4.35;;
16472;SDS011;8347;52.486;13.432;2023-06-22T14:19:21;4.20;;;3.78;;
16472;SDS011;8347;52.486;13.432;2023-06-22T14:22:07;4.90;;;4.32;;
16472;SDS011;8347;52.486;13.432;2023-06-22T14:24:54;4.85;;;4.32;;
16472;SDS011;8347;52.486;13.432;2023-06-22T14:27:41;4.20;;;3.80;;
16472;SDS011;8347;52.486;13.432;2023-06-22T14:30:28;5.07;;;3.88;;
16472;SDS011;8347;52.486;13.432;2023-06-22T14:33:14;4.40;;;3.95;;
16472;SDS011;8347;52.486;13.432;2023-06-22T14:36:01;4.38;;;3.97;;
16472;SDS011;8347;52.486;13.432;2023-06-22T14:38:47;5.43;;;4.00;;
16472;SDS011;8347;52.486;13.432;2023-06-22T14:41:34;5.28;;;4.07;;
16472;SDS011;8347;52.486;13.432;2023-06-22T14:44:20;5.20;;;4.20;;
16472;SDS011;8347;52.486;13.432;2023-06-22T14:47:07;6.03;;;4.05;;
16472;SDS011;8347;52.486;13.432;2023-06-22T14:49:54;5.18;;;3.70;;
16472;SDS011;8347;52.486;13.432;2023-06-22T14:52:40;4.80;;;4.22;;
16472;SDS011;8347;52.486;13.432;2023-06-22T14:55:27;4.65;;;4.15;;
16472;SDS011;8347;52.486;13.432;2023-06-22T14:58:14;4.20;;;3.80;;
16472;SDS011;8347;52.486;13.432;2023-06-22T15:01:00;4.47;;;3.78;;
16472;SDS011;8347;52.486;13.432;2023-06-22T15:03:50;4.15;;;3.80;;
16472;SDS011;8347;52.486;13.432;2023-06-22T15:06:36;6.78;;;4.55;;
16472;SDS011;8347;52.486;13.432;2023-06-22T15:09:23;5.70;;;3.75;;
16472;SDS011;8347;52.486;13.432;2023-06-22T15:12:10;5.07;;;4.28;;
16472;SDS011;8347;52.486;13.432;2023-06-22T15:14:57;5.88;;;5.07;;
16472;SDS011;8347;52.486;13.432;2023-06-22T15:17:43;4.20;;;3.90;;
16472;SDS011;8347;52.486;13.432;2023-06-22T15:20:30;4.40;;;3.70;;
16472;SDS011;8347;52.486;13.432;2023-06-22T15:23:17;5.28;;;4.47;;
16472;SDS011;8347;52.486;13.432;2023-06-22T15:26:03;4.85;;;4.35;;
16472;SDS011;8347;52.486;13.432;2023-06-22T15:28:53;4.88;;;4.47;;
16472;SDS011;8347;52.486;13.432;2023-06-22T15:31:40;9.13;;;4.60;;
16472;SDS011;8347;52.486;13.432;2023-06-22T15:34:27;4.55;;;4.13;;
16472;SDS011;8347;52.486;13.432;2023-06-22T15:37:14;4.53;;;4.13;;
16472;SDS011;8347;52.486;13.432;2023-06-22T15:40:02;5.22;;;4.10;;
16472;SDS011;8347;52.486;13.432;2023-06-22T15:42:50;6.53;;;4.53;;
16472;SDS011;8347;52.486;13.432;2023-06-22T15:45:36;5.25;;;4.75;;
16472;SDS011;8347;52.486;13.432;2023-06-22T15:48:23;4.82;;;3.97;;
16472;SDS011;8347;52.486;13.432;2023-06-22T15:51:10;5.40;;;4.47;;
16472;SDS011;8347;52.486;13.432;2023-06-22T15:53:57;8.40;;;3.85;;
16472;SDS011;8347;52.486;13.432;2023-06-22T15:56:43;5.00;;;4.47;;
16472;SDS011;8347;52.486;13.432;2023-06-22T15:59:30;4.80;;;4.40;;
16472;SDS011;8347;52.486;13.432;2023-06-22T16:02:17;4.95;;;4.13;;
16472;SDS011;8347;52.486;13.432;2023-06-22T16:05:03;4.78;;;4.28;;
16472;SDS011;8347;52.486;13.432;2023-06-22T16:07:50;6.15;;;4.28;;
16472;SDS011;8347;52.486;13.432;2023-06-22T16:10:37;6.18;;;4.57;;
16472;SDS011;8347;52.486;13.432;2023-06-22T16:13:24;5.20;;;4.43;;
16472;SDS011;8347;52.486;13.432;2023-06-22T16:16:10;5.10;;;4.43;;
16472;SDS011;8347;52.486;13.432;2023-06-22T16:18:57;5.35;;;4.85;;
16472;SDS011;8347;52.486;13.432;2023-06-22T16:21:43;5.40;;;4.30;;
16472;SDS011;8347;52.486;13.432;2023-06-22T16:24:30;5.80;;;4.57;;
16472;SDS011;8347;52.486;13.432;2023-06-22T16:27:17;5.18;;;4.68;;
16472;SDS011;8347;52.486;13.432;2023-06-22T16:30:07;7.47;;;4.85;;
16472;SDS011;8347;52.486;13.432;2023-06-22T16:32:55;7.07;;;4.88;;
16472;SDS011;8347;52.486;13.432;2023-06-22T16:35:47;5.25;;;3.95;;
16472;SDS011;8347;52.486;13.432;2023-06-22T16:38:34;6.20;;;5.43;;
16472;SDS011;8347;52.486;13.432;2023-06-22T16:41:23;5.40;;;4.90;;
16472;SDS011;8347;52.486;13.432;2023-06-22T16:44:11;7.43;;;5.40;;
16472;SDS011;8347;52.486;13.432;2023-06-22T16:46:58;6.15;;;5.40;;